^^
Your Local Weather - Clay, NY Station Historical Data
Daily Summary for January 18, 2018 Units:  Both    English   Metric
« Previous Day
Next Day »
Daily Weekly Monthly Yearly Custom
  High: Low: Average:
Temperature: 21.3 °F /  -5.9 °C -6.6 °F /  -21.4 °C 10.9 °F /  -11.7 °C
Dew Point: 16.6 °F /  -8.6 °C -10.4 °F /  -23.6 °C 6.8 °F /  -14 °C
Humidity: 89% 80% 83%
Wind Speed: 6.0mph /  9.7km/h - 1.7mph /  2.7km/h
Wind Gust: 12.0mph /  19.3km/h - -
Wind- - WSW
Pressure: 30.13 in /  1020.2 hPa 29.99 in /  1015.5 hPa -
Precipitation: 0.00 in /  0 mm    
Historical Graphs
 
 
Tabular Data for January 18, 2018
Time Temperature Dew Point Pressure Wind Wind Speed Wind Gust Humidity Rainfall Rate (Hourly) solar
00:06 1.5 °F /  -16.9 °C -1.7 °F /  -18.7 °C 30.13in /  1020.2hPa Calm     86% 0.00in /  0mm 0 W/m2
00:12 1.4 °F /  -17 °C -1.8 °F /  -18.8 °C 30.13in /  1020.2hPa Calm     86% 0.00in /  0mm 0 W/m2
00:18 1.3 °F /  -17.1 °C -1.9 °F /  -18.8 °C 30.12in /  1019.9hPa Calm     86% 0.00in /  0mm 0 W/m2
00:24 1.1 °F /  -17.2 °C -2.1 °F /  -18.9 °C 30.12in /  1019.9hPa Calm     86% 0.00in /  0mm 0 W/m2
00:30 1.0 °F /  -17.2 °C -2.2 °F /  -19 °C 30.12in /  1019.9hPa Calm     86% 0.00in /  0mm 0 W/m2
00:35 0.9 °F /  -17.3 °C -2.3 °F /  -19.1 °C 30.12in /  1019.9hPa Calm     86% 0.00in /  0mm 0 W/m2
00:42 0.8 °F /  -17.3 °C -2.4 °F /  -19.1 °C 30.11in /  1019.5hPa Calm     86% 0.00in /  0mm 0 W/m2
00:48 0.7 °F /  -17.4 °C -2.5 °F /  -19.2 °C 30.11in /  1019.5hPa Calm     86% 0.00in /  0mm 0 W/m2
00:54 0.6 °F /  -17.4 °C -2.6 °F /  -19.2 °C 30.11in /  1019.5hPa Calm     86% 0.00in /  0mm 0 W/m2
01:00 0.4 °F /  -17.6 °C -2.8 °F /  -19.3 °C 30.10in /  1019.2hPa Calm     86% 0.00in /  0mm 0 W/m2
01:05 0.3 °F /  -17.6 °C -2.9 °F /  -19.4 °C 30.10in /  1019.2hPa Calm     86% 0.00in /  0mm 0 W/m2
01:12 0.2 °F /  -17.7 °C -3.0 °F /  -19.4 °C 30.10in /  1019.2hPa Calm     86% 0.00in /  0mm 0 W/m2
01:18 0.0 °F /  -17.8 °C -3.2 °F /  -19.6 °C 30.10in /  1019.2hPa Calm     86% 0.00in /  0mm 0 W/m2
01:24 -0.1 °F /  -17.8 °C -3.5 °F /  -19.7 °C 30.10in /  1019.2hPa Calm     85% 0.00in /  0mm 0 W/m2
01:29 -0.3 °F /  -17.9 °C -3.7 °F /  -19.8 °C 30.10in /  1019.2hPa Calm     85% 0.00in /  0mm 0 W/m2
01:36 -0.3 °F /  -17.9 °C -3.7 °F /  -19.8 °C 30.10in /  1019.2hPa Calm     85% 0.00in /  0mm 0 W/m2
01:42 -0.4 °F /  -18 °C -3.6 °F /  -19.8 °C 30.10in /  1019.2hPa Calm     86% 0.00in /  0mm 0 W/m2
01:48 -0.5 °F /  -18.1 °C -3.7 °F /  -19.8 °C 30.10in /  1019.2hPa Calm     86% 0.00in /  0mm 0 W/m2
01:53 -0.6 °F /  -18.1 °C -3.8 °F /  -19.9 °C 30.10in /  1019.2hPa Calm     86% 0.00in /  0mm 0 W/m2
01:59 -0.6 °F /  -18.1 °C -4.0 °F /  -20 °C 30.10in /  1019.2hPa Calm     85% 0.00in /  0mm 0 W/m2
02:05 -0.8 °F /  -18.2 °C -4.2 °F /  -20.1 °C 30.10in /  1019.2hPa Calm     85% 0.00in /  0mm 0 W/m2
02:12 -1.0 °F /  -18.3 °C -4.4 °F /  -20.2 °C 30.11in /  1019.5hPa Calm     85% 0.00in /  0mm 0 W/m2
02:18 -1.3 °F /  -18.5 °C -4.7 °F /  -20.4 °C 30.11in /  1019.5hPa Calm     85% 0.00in /  0mm 0 W/m2
02:24 -1.4 °F /  -18.6 °C -4.8 °F /  -20.4 °C 30.11in /  1019.5hPa Calm     85% 0.00in /  0mm 0 W/m2
02:30 -1.5 °F /  -18.6 °C -4.9 °F /  -20.5 °C 30.11in /  1019.5hPa Calm     85% 0.00in /  0mm 0 W/m2
02:36 -1.6 °F /  -18.7 °C -5.0 °F /  -20.6 °C 30.11in /  1019.5hPa Calm     85% 0.00in /  0mm 0 W/m2
02:42 -1.7 °F /  -18.7 °C -5.1 °F /  -20.6 °C 30.11in /  1019.5hPa Calm     85% 0.00in /  0mm 0 W/m2
02:48 -1.8 °F /  -18.8 °C -5.2 °F /  -20.7 °C 30.11in /  1019.5hPa Calm     85% 0.00in /  0mm 0 W/m2
02:53 -1.8 °F /  -18.8 °C -5.2 °F /  -20.7 °C 30.11in /  1019.5hPa Calm     85% 0.00in /  0mm 0 W/m2
03:00 -1.9 °F /  -18.8 °C -5.3 °F /  -20.7 °C 30.10in /  1019.2hPa Calm     85% 0.00in /  0mm 0 W/m2
03:06 -2.1 °F /  -18.9 °C -5.5 °F /  -20.8 °C 30.10in /  1019.2hPa Calm     85% 0.00in /  0mm 0 W/m2
03:12 -2.3 °F /  -19.1 °C -5.7 °F /  -20.9 °C 30.10in /  1019.2hPa Calm     85% 0.00in /  0mm 0 W/m2
03:18 -2.4 °F /  -19.1 °C -5.8 °F /  -21 °C 30.10in /  1019.2hPa Calm     85% 0.00in /  0mm 0 W/m2
03:24 -2.5 °F /  -19.2 °C -5.9 °F /  -21.1 °C 30.10in /  1019.2hPa Calm     85% 0.00in /  0mm 0 W/m2
03:29 -2.5 °F /  -19.2 °C -5.9 °F /  -21.1 °C 30.10in /  1019.2hPa Calm     85% 0.00in /  0mm 0 W/m2
03:36 -2.8 °F /  -19.3 °C -6.2 °F /  -21.2 °C 30.09in /  1018.8hPa Calm     85% 0.00in /  0mm 0 W/m2
03:42 -2.9 °F /  -19.4 °C -6.3 °F /  -21.3 °C 30.09in /  1018.8hPa Calm     85% 0.00in /  0mm 0 W/m2
03:48 -3.1 °F /  -19.5 °C -6.5 °F /  -21.4 °C 30.09in /  1018.8hPa Calm     85% 0.00in /  0mm 0 W/m2
03:54 -3.3 °F /  -19.6 °C -6.7 °F /  -21.5 °C 30.09in /  1018.8hPa Calm     85% 0.00in /  0mm 0 W/m2
03:59 -3.4 °F /  -19.7 °C -7.0 °F /  -21.7 °C 30.09in /  1018.8hPa Calm     84% 0.00in /  0mm 0 W/m2
04:05 -3.5 °F /  -19.7 °C -6.9 °F /  -21.6 °C 30.08in /  1018.5hPa Calm     85% 0.00in /  0mm 0 W/m2
04:12 -3.6 °F /  -19.8 °C -7.0 °F /  -21.7 °C 30.08in /  1018.5hPa Calm     85% 0.00in /  0mm 0 W/m2
04:18 -3.7 °F /  -19.8 °C -7.1 °F /  -21.7 °C 30.08in /  1018.5hPa Calm     85% 0.00in /  0mm 0 W/m2
04:24 -3.9 °F /  -19.9 °C -7.5 °F /  -21.9 °C 30.08in /  1018.5hPa Calm     84% 0.00in /  0mm 0 W/m2
04:30 -4.1 °F /  -20.1 °C -7.7 °F /  -22.1 °C 30.08in /  1018.5hPa Calm     84% 0.00in /  0mm 0 W/m2
04:35 -4.2 °F /  -20.1 °C -7.8 °F /  -22.1 °C 30.08in /  1018.5hPa Calm     84% 0.00in /  0mm 0 W/m2
04:42 -4.4 °F /  -20.2 °C -8.0 °F /  -22.2 °C 30.08in /  1018.5hPa Calm     84% 0.00in /  0mm 0 W/m2
04:48 -4.5 °F /  -20.3 °C -8.1 °F /  -22.3 °C 30.08in /  1018.5hPa Calm     84% 0.00in /  0mm 0 W/m2
04:53 -4.6 °F /  -20.3 °C -8.2 °F /  -22.3 °C 30.08in /  1018.5hPa Calm     84% 0.00in /  0mm 0 W/m2
04:59 -4.8 °F /  -20.4 °C -8.4 °F /  -22.4 °C 30.08in /  1018.5hPa Calm     84% 0.00in /  0mm 0 W/m2
05:05 -4.9 °F /  -20.5 °C -8.5 °F /  -22.5 °C 30.08in /  1018.5hPa Calm     84% 0.00in /  0mm 0 W/m2
05:12 -5.0 °F /  -20.6 °C -8.6 °F /  -22.6 °C 30.08in /  1018.5hPa Calm     84% 0.00in /  0mm 0 W/m2
05:18 -5.1 °F /  -20.6 °C -8.7 °F /  -22.6 °C 30.07in /  1018.2hPa Calm     84% 0.00in /  0mm 0 W/m2
05:24 -5.2 °F /  -20.7 °C -8.8 °F /  -22.7 °C 30.07in /  1018.2hPa Calm     84% 0.00in /  0mm 0 W/m2
05:29 -5.3 °F /  -20.7 °C -8.9 °F /  -22.7 °C 30.07in /  1018.2hPa Calm     84% 0.00in /  0mm 0 W/m2
05:36 -5.4 °F /  -20.8 °C -9.0 °F /  -22.8 °C 30.07in /  1018.2hPa Calm     84% 0.00in /  0mm 0 W/m2
05:42 -5.5 °F /  -20.8 °C -9.1 °F /  -22.8 °C 30.07in /  1018.2hPa Calm     84% 0.00in /  0mm 0 W/m2
05:48 -5.6 °F /  -20.9 °C -9.2 °F /  -22.9 °C 30.07in /  1018.2hPa Calm     84% 0.00in /  0mm 0 W/m2
05:53 -5.7 °F /  -20.9 °C -9.3 °F /  -22.9 °C 30.07in /  1018.2hPa Calm     84% 0.00in /  0mm 0 W/m2
06:00 -5.7 °F /  -20.9 °C -9.3 °F /  -22.9 °C 30.07in /  1018.2hPa Calm     84% 0.00in /  0mm 0 W/m2
06:06 -5.8 °F /  -21 °C -9.4 °F /  -23 °C 30.07in /  1018.2hPa Calm     84% 0.00in /  0mm 0 W/m2
06:12 -5.9 °F /  -21.1 °C -9.5 °F /  -23.1 °C 30.07in /  1018.2hPa Calm     84% 0.00in /  0mm 0 W/m2
06:18 -6.0 °F /  -21.1 °C -9.6 °F /  -23.1 °C 30.07in /  1018.2hPa Calm     84% 0.00in /  0mm 0 W/m2
06:23 -6.1 °F /  -21.2 °C -9.7 °F /  -23.2 °C 30.07in /  1018.2hPa Calm     84% 0.00in /  0mm 0 W/m2
06:30 -6.2 °F /  -21.2 °C -9.8 °F /  -23.2 °C 30.07in /  1018.2hPa Calm     84% 0.00in /  0mm 0 W/m2
06:36 -6.3 °F /  -21.3 °C -9.9 °F /  -23.3 °C 30.07in /  1018.2hPa Calm     84% 0.00in /  0mm 0 W/m2
06:42 -6.4 °F /  -21.3 °C -10.0 °F /  -23.3 °C 30.07in /  1018.2hPa Calm     84% 0.00in /  0mm 0 W/m2
06:48 -6.4 °F /  -21.3 °C -10.2 °F /  -23.4 °C 30.07in /  1018.2hPa Calm     83% 0.00in /  0mm 0 W/m2
06:53 -6.5 °F /  -21.4 °C -10.1 °F /  -23.4 °C 30.06in /  1017.8hPa Calm     84% 0.00in /  0mm 0 W/m2
06:59 -6.6 °F /  -21.4 °C -10.2 °F /  -23.4 °C 30.07in /  1018.2hPa Calm     84% 0.00in /  0mm 0 W/m2
07:05 -6.6 °F /  -21.4 °C -10.4 °F /  -23.6 °C 30.07in /  1018.2hPa Calm     83% 0.00in /  0mm 0 W/m2
07:12 -6.6 °F /  -21.4 °C -10.4 °F /  -23.6 °C 30.07in /  1018.2hPa Calm     83% 0.00in /  0mm 0 W/m2
07:18 -6.5 °F /  -21.4 °C -10.1 °F /  -23.4 °C 30.07in /  1018.2hPa Calm     84% 0.00in /  0mm 0 W/m2
07:24 -6.3 °F /  -21.3 °C -9.9 °F /  -23.3 °C 30.06in /  1017.8hPa Calm     84% 0.00in /  0mm 0 W/m2
07:30 -6.1 °F /  -21.2 °C -9.7 °F /  -23.2 °C 30.06in /  1017.8hPa Calm     84% 0.00in /  0mm 0 W/m2
07:35 -6.0 °F /  -21.1 °C -9.6 °F /  -23.1 °C 30.06in /  1017.8hPa Calm     84% 0.00in /  0mm 5 W/m2
07:42 -5.7 °F /  -20.9 °C -9.3 °F /  -22.9 °C 30.07in /  1018.2hPa Calm     84% 0.00in /  0mm 9 W/m2
07:48 -5.2 °F /  -20.7 °C -8.8 °F /  -22.7 °C 30.07in /  1018.2hPa Calm     84% 0.00in /  0mm 11 W/m2
07:54 -4.5 °F /  -20.3 °C -7.9 °F /  -22.2 °C 30.07in /  1018.2hPa Calm     85% 0.00in /  0mm 14 W/m2
08:00 -3.3 °F /  -19.6 °C -6.7 °F /  -21.5 °C 30.06in /  1017.8hPa Calm   1.0mph /  1.6km/h 85% 0.00in /  0mm 18 W/m2
08:06 -2.2 °F /  -19 °C -5.6 °F /  -20.9 °C 30.06in /  1017.8hPa Calm   1.0mph /  1.6km/h 85% 0.00in /  0mm 23 W/m2
08:12 -1.3 °F /  -18.5 °C -4.5 °F /  -20.3 °C 30.06in /  1017.8hPa Calm     86% 0.00in /  0mm 28 W/m2
08:18 -0.5 °F /  -18.1 °C -3.7 °F /  -19.8 °C 30.06in /  1017.8hPa Calm     86% 0.00in /  0mm 33 W/m2
08:24 0.1 °F /  -17.7 °C -3.1 °F /  -19.5 °C 30.06in /  1017.8hPa Calm     86% 0.00in /  0mm 35 W/m2
08:30 0.7 °F /  -17.4 °C -2.5 °F /  -19.2 °C 30.07in /  1018.2hPa Calm     86% 0.00in /  0mm 42 W/m2
08:36 1.4 °F /  -17 °C -1.8 °F /  -18.8 °C 30.07in /  1018.2hPa Calm     86% 0.00in /  0mm 47 W/m2
08:42 2.2 °F /  -16.6 °C -1.0 °F /  -18.3 °C 30.07in /  1018.2hPa Calm     86% 0.00in /  0mm 56 W/m2
08:48 3.3 °F /  -15.9 °C 0.3 °F /  -17.6 °C 30.07in /  1018.2hPa Calm     87% 0.00in /  0mm 62 W/m2
08:54 4.4 °F /  -15.3 °C 1.4 °F /  -17 °C 30.07in /  1018.2hPa Calm     87% 0.00in /  0mm 72 W/m2
08:59 5.3 °F /  -14.8 °C 2.3 °F /  -16.5 °C 30.07in /  1018.2hPa Calm     87% 0.00in /  0mm 76 W/m2
09:06 6.1 °F /  -14.4 °C 3.1 °F /  -16.1 °C 30.07in /  1018.2hPa Calm     87% 0.00in /  0mm 79 W/m2
09:12 7.4 °F /  -13.7 °C 4.6 °F /  -15.2 °C 30.07in /  1018.2hPa Calm     88% 0.00in /  0mm 90 W/m2
09:18 8.8 °F /  -12.9 °C 6.0 °F /  -14.4 °C 30.07in /  1018.2hPa Calm     88% 0.00in /  0mm 97 W/m2
09:24 10.1 °F /  -12.2 °C 7.5 °F /  -13.6 °C 30.07in /  1018.2hPa Calm   2.0mph /  3.2km/h 89% 0.00in /  0mm 102 W/m2
09:30 11.5 °F /  -11.4 °C 8.9 °F /  -12.8 °C 30.07in /  1018.2hPa WSW 1.0mph /  1.6km/h 1.0mph /  1.6km/h 89% 0.00in /  0mm 111 W/m2
09:35 12.9 °F /  -10.6 °C 10.3 °F /  -12.1 °C 30.07in /  1018.2hPa West 2.0mph /  3.2km/h 4.0mph /  6.4km/h 89% 0.00in /  0mm 125 W/m2
09:42 13.9 °F /  -10.1 °C 11.0 °F /  -11.7 °C 30.07in /  1018.2hPa WSW 2.0mph /  3.2km/h 2.0mph /  3.2km/h 88% 0.00in /  0mm 148 W/m2
09:48 14.8 °F /  -9.6 °C 11.6 °F /  -11.3 °C 30.07in /  1018.2hPa West 2.0mph /  3.2km/h 3.0mph /  4.8km/h 87% 0.00in /  0mm 132 W/m2
09:54 15.4 °F /  -9.2 °C 12.2 °F /  -11 °C 30.07in /  1018.2hPa SW 3.0mph /  4.8km/h 5.0mph /  8km/h 87% 0.00in /  0mm 156 W/m2
09:59 16.0 °F /  -8.9 °C 12.6 °F /  -10.8 °C 30.07in /  1018.2hPa West 4.0mph /  6.4km/h 6.0mph /  9.7km/h 86% 0.00in /  0mm 169 W/m2
10:05 16.5 °F /  -8.6 °C 12.8 °F /  -10.7 °C 30.07in /  1018.2hPa West 4.0mph /  6.4km/h 7.0mph /  11.3km/h 85% 0.00in /  0mm 174 W/m2
10:12 16.9 °F /  -8.4 °C 13.2 °F /  -10.4 °C 30.07in /  1018.2hPa WSW 4.0mph /  6.4km/h 4.0mph /  6.4km/h 85% 0.00in /  0mm 162 W/m2
10:18 17.2 °F /  -8.2 °C 13.5 °F /  -10.3 °C 30.08in /  1018.5hPa SW 4.0mph /  6.4km/h 8.0mph /  12.9km/h 85% 0.00in /  0mm 174 W/m2
10:24 17.4 °F /  -8.1 °C 13.4 °F /  -10.3 °C 30.08in /  1018.5hPa WSW 5.0mph /  8km/h 6.0mph /  9.7km/h 84% 0.00in /  0mm 163 W/m2
10:29 17.6 °F /  -8 °C 13.6 °F /  -10.2 °C 30.07in /  1018.2hPa SW 5.0mph /  8km/h 5.0mph /  8km/h 84% 0.00in /  0mm 186 W/m2
10:36 17.7 °F /  -7.9 °C 13.4 °F /  -10.3 °C 30.07in /  1018.2hPa West 5.0mph /  8km/h 8.0mph /  12.9km/h 83% 0.00in /  0mm 199 W/m2
10:42 18.0 °F /  -7.8 °C 14.0 °F /  -10 °C 30.06in /  1017.8hPa WSW 5.0mph /  8km/h 5.0mph /  8km/h 84% 0.00in /  0mm 172 W/m2
10:48 18.1 °F /  -7.7 °C 13.8 °F /  -10.1 °C 30.06in /  1017.8hPa West 5.0mph /  8km/h 5.0mph /  8km/h 83% 0.00in /  0mm 135 W/m2
10:53 18.0 °F /  -7.8 °C 13.7 °F /  -10.2 °C 30.06in /  1017.8hPa WSW 4.0mph /  6.4km/h 7.0mph /  11.3km/h 83% 0.00in /  0mm 121 W/m2
10:59 18.4 °F /  -7.6 °C 14.4 °F /  -9.8 °C 30.06in /  1017.8hPa WSW 3.0mph /  4.8km/h 5.0mph /  8km/h 84% 0.00in /  0mm 223 W/m2
11:06 18.6 °F /  -7.4 °C 14.6 °F /  -9.7 °C 30.06in /  1017.8hPa WNW 4.0mph /  6.4km/h 5.0mph /  8km/h 84% 0.00in /  0mm 237 W/m2
11:12 18.8 °F /  -7.3 °C 14.5 °F /  -9.7 °C 30.07in /  1018.2hPa West 5.0mph /  8km/h 7.0mph /  11.3km/h 83% 0.00in /  0mm 308 W/m2
11:18 19.0 °F /  -7.2 °C 14.7 °F /  -9.6 °C 30.06in /  1017.8hPa WSW 4.0mph /  6.4km/h 7.0mph /  11.3km/h 83% 0.00in /  0mm 225 W/m2
11:23 19.1 °F /  -7.2 °C 14.8 °F /  -9.6 °C 30.06in /  1017.8hPa WSW 4.0mph /  6.4km/h 7.0mph /  11.3km/h 83% 0.00in /  0mm 330 W/m2
11:30 19.3 °F /  -7.1 °C 14.7 °F /  -9.6 °C 30.06in /  1017.8hPa SSW 5.0mph /  8km/h 6.0mph /  9.7km/h 82% 0.00in /  0mm 272 W/m2
11:35 19.3 °F /  -7.1 °C 14.7 °F /  -9.6 °C 30.06in /  1017.8hPa West 5.0mph /  8km/h 6.0mph /  9.7km/h 82% 0.00in /  0mm 253 W/m2
11:42 19.3 °F /  -7.1 °C 14.7 °F /  -9.6 °C 30.05in /  1017.5hPa West 5.0mph /  8km/h 10.0mph /  16.1km/h 82% 0.00in /  0mm 213 W/m2
11:48 19.5 °F /  -6.9 °C 15.2 °F /  -9.3 °C 30.05in /  1017.5hPa West 4.0mph /  6.4km/h 10.0mph /  16.1km/h 83% 0.00in /  0mm 234 W/m2
11:53 19.7 °F /  -6.8 °C 15.1 °F /  -9.4 °C 30.05in /  1017.5hPa SW 3.0mph /  4.8km/h 6.0mph /  9.7km/h 82% 0.00in /  0mm 223 W/m2
12:00 19.7 °F /  -6.8 °C 15.1 °F /  -9.4 °C 30.05in /  1017.5hPa WSW 4.0mph /  6.4km/h 11.0mph /  17.7km/h 82% 0.00in /  0mm 220 W/m2
12:06 19.6 °F /  -6.9 °C 14.7 °F /  -9.6 °C 30.05in /  1017.5hPa West 6.0mph /  9.7km/h 11.0mph /  17.7km/h 81% 0.00in /  0mm 237 W/m2
12:12 19.7 °F /  -6.8 °C 14.8 °F /  -9.6 °C 30.05in /  1017.5hPa WNW 6.0mph /  9.7km/h 6.0mph /  9.7km/h 81% 0.00in /  0mm 221 W/m2
12:18 19.9 °F /  -6.7 °C 15.3 °F /  -9.3 °C 30.04in /  1017.2hPa WSW 4.0mph /  6.4km/h 6.0mph /  9.7km/h 82% 0.00in /  0mm 227 W/m2
12:23 19.9 °F /  -6.7 °C 15.0 °F /  -9.4 °C 30.04in /  1017.2hPa West 5.0mph /  8km/h 5.0mph /  8km/h 81% 0.00in /  0mm 223 W/m2
12:30 20.0 °F /  -6.7 °C 15.1 °F /  -9.4 °C 30.03in /  1016.8hPa NW 6.0mph /  9.7km/h 6.0mph /  9.7km/h 81% 0.00in /  0mm 202 W/m2
12:36 20.0 °F /  -6.7 °C 15.1 °F /  -9.4 °C 30.03in /  1016.8hPa SW 6.0mph /  9.7km/h 10.0mph /  16.1km/h 81% 0.00in /  0mm 225 W/m2
12:42 20.2 °F /  -6.6 °C 15.3 °F /  -9.3 °C 30.03in /  1016.8hPa WSW 6.0mph /  9.7km/h 10.0mph /  16.1km/h 81% 0.00in /  0mm 220 W/m2
12:48 20.3 °F /  -6.5 °C 15.4 °F /  -9.2 °C 30.03in /  1016.8hPa West 6.0mph /  9.7km/h 10.0mph /  16.1km/h 81% 0.00in /  0mm 230 W/m2
12:54 20.4 °F /  -6.4 °C 15.5 °F /  -9.2 °C 30.03in /  1016.8hPa SW 5.0mph /  8km/h 7.0mph /  11.3km/h 81% 0.00in /  0mm 221 W/m2
13:00 20.5 °F /  -6.4 °C 15.9 °F /  -8.9 °C 30.03in /  1016.8hPa WSW 4.0mph /  6.4km/h 4.0mph /  6.4km/h 82% 0.00in /  0mm 241 W/m2
13:06 20.7 °F /  -6.3 °C 15.8 °F /  -9 °C 30.02in /  1016.5hPa SW 4.0mph /  6.4km/h 6.0mph /  9.7km/h 81% 0.00in /  0mm 234 W/m2
13:12 20.8 °F /  -6.2 °C 15.9 °F /  -8.9 °C 30.02in /  1016.5hPa SW 5.0mph /  8km/h 7.0mph /  11.3km/h 81% 0.00in /  0mm 225 W/m2
13:20 21.0 °F /  -6.1 °C 16.1 °F /  -8.8 °C 30.02in /  1016.5hPa SW 4.0mph /  6.4km/h 9.0mph /  14.5km/h 81% 0.00in /  0mm 234 W/m2
13:25 20.9 °F /  -6.2 °C 16.0 °F /  -8.9 °C 30.03in /  1016.8hPa SW 5.0mph /  8km/h 9.0mph /  14.5km/h 81% 0.00in /  0mm 218 W/m2
13:32 21.0 °F /  -6.1 °C 16.1 °F /  -8.8 °C 30.02in /  1016.5hPa WSW 5.0mph /  8km/h 6.0mph /  9.7km/h 81% 0.00in /  0mm 207 W/m2
13:38 21.1 °F /  -6.1 °C 15.9 °F /  -8.9 °C 30.02in /  1016.5hPa WSW 5.0mph /  8km/h 7.0mph /  11.3km/h 80% 0.00in /  0mm 206 W/m2
13:44 21.3 °F /  -5.9 °C 16.4 °F /  -8.7 °C 30.02in /  1016.5hPa SW 4.0mph /  6.4km/h 5.0mph /  8km/h 81% 0.00in /  0mm 179 W/m2
13:49 21.3 °F /  -5.9 °C 16.1 °F /  -8.8 °C 30.02in /  1016.5hPa WNW 4.0mph /  6.4km/h 4.0mph /  6.4km/h 80% 0.00in /  0mm 158 W/m2
13:56 21.3 °F /  -5.9 °C 16.1 °F /  -8.8 °C 30.02in /  1016.5hPa SW 4.0mph /  6.4km/h 8.0mph /  12.9km/h 80% 0.00in /  0mm 151 W/m2
14:02 21.3 °F /  -5.9 °C 16.1 °F /  -8.8 °C 30.02in /  1016.5hPa West 4.0mph /  6.4km/h 5.0mph /  8km/h 80% 0.00in /  0mm 134 W/m2
14:08 21.2 °F /  -6 °C 16.0 °F /  -8.9 °C 30.02in /  1016.5hPa West 4.0mph /  6.4km/h 9.0mph /  14.5km/h 80% 0.00in /  0mm 118 W/m2
14:14 21.3 °F /  -5.9 °C 16.1 °F /  -8.8 °C 30.02in /  1016.5hPa WSW 4.0mph /  6.4km/h 4.0mph /  6.4km/h 80% 0.00in /  0mm 111 W/m2
14:20 21.3 °F /  -5.9 °C 16.1 °F /  -8.8 °C 30.02in /  1016.5hPa SW 4.0mph /  6.4km/h 4.0mph /  6.4km/h 80% 0.00in /  0mm 111 W/m2
14:26 21.1 °F /  -6.1 °C 15.9 °F /  -8.9 °C 30.01in /  1016.1hPa West 5.0mph /  8km/h 6.0mph /  9.7km/h 80% 0.00in /  0mm 109 W/m2
14:32 21.0 °F /  -6.1 °C 15.8 °F /  -9 °C 30.01in /  1016.1hPa SW 6.0mph /  9.7km/h 6.0mph /  9.7km/h 80% 0.00in /  0mm 114 W/m2
14:38 21.0 °F /  -6.1 °C 15.8 °F /  -9 °C 30.01in /  1016.1hPa WSW 6.0mph /  9.7km/h 11.0mph /  17.7km/h 80% 0.00in /  0mm 105 W/m2
14:44 21.1 °F /  -6.1 °C 15.9 °F /  -8.9 °C 30.01in /  1016.1hPa SW 6.0mph /  9.7km/h 8.0mph /  12.9km/h 80% 0.00in /  0mm 102 W/m2
14:49 21.1 °F /  -6.1 °C 15.9 °F /  -8.9 °C 30.01in /  1016.1hPa WSW 4.0mph /  6.4km/h 4.0mph /  6.4km/h 80% 0.00in /  0mm 97 W/m2
14:55 21.3 °F /  -5.9 °C 16.1 °F /  -8.8 °C 30.02in /  1016.5hPa WSW 4.0mph /  6.4km/h 7.0mph /  11.3km/h 80% 0.00in /  0mm 93 W/m2
15:02 21.2 °F /  -6 °C 16.0 °F /  -8.9 °C 30.02in /  1016.5hPa WNW 4.0mph /  6.4km/h 4.0mph /  6.4km/h 80% 0.00in /  0mm 81 W/m2
15:08 21.2 °F /  -6 °C 16.6 °F /  -8.6 °C 30.02in /  1016.5hPa West 3.0mph /  4.8km/h 7.0mph /  11.3km/h 82% 0.00in /  0mm 70 W/m2
15:14 21.2 °F /  -6 °C 16.0 °F /  -8.9 °C 30.02in /  1016.5hPa West 4.0mph /  6.4km/h 12.0mph /  19.3km/h 80% 0.00in /  0mm 67 W/m2
15:20 21.1 °F /  -6.1 °C 16.2 °F /  -8.8 °C 30.02in /  1016.5hPa SW 5.0mph /  8km/h 5.0mph /  8km/h 81% 0.00in /  0mm 58 W/m2
15:25 21.1 °F /  -6.1 °C 15.9 °F /  -8.9 °C 30.02in /  1016.5hPa WSW 5.0mph /  8km/h 6.0mph /  9.7km/h 80% 0.00in /  0mm 56 W/m2
15:32 21.1 °F /  -6.1 °C 15.9 °F /  -8.9 °C 30.02in /  1016.5hPa WSW 5.0mph /  8km/h 7.0mph /  11.3km/h 80% 0.00in /  0mm 51 W/m2
15:38 21.0 °F /  -6.1 °C 15.8 °F /  -9 °C 30.02in /  1016.5hPa West 5.0mph /  8km/h 7.0mph /  11.3km/h 80% 0.00in /  0mm 47 W/m2
15:43 21.0 °F /  -6.1 °C 15.8 °F /  -9 °C 30.02in /  1016.5hPa WSW 5.0mph /  8km/h 5.0mph /  8km/h 80% 0.00in /  0mm 42 W/m2
15:50 21.0 °F /  -6.1 °C 16.1 °F /  -8.8 °C 30.02in /  1016.5hPa WSW 4.0mph /  6.4km/h 4.0mph /  6.4km/h 81% 0.00in /  0mm 39 W/m2
15:56 21.0 °F /  -6.1 °C 16.1 °F /  -8.8 °C 30.02in /  1016.5hPa SW 3.0mph /  4.8km/h 5.0mph /  8km/h 81% 0.00in /  0mm 33 W/m2
16:02 21.0 °F /  -6.1 °C 16.1 °F /  -8.8 °C 30.02in /  1016.5hPa WSW 4.0mph /  6.4km/h 4.0mph /  6.4km/h 81% 0.00in /  0mm 33 W/m2
16:08 21.0 °F /  -6.1 °C 16.1 °F /  -8.8 °C 30.02in /  1016.5hPa WSW 4.0mph /  6.4km/h 9.0mph /  14.5km/h 81% 0.00in /  0mm 30 W/m2
16:14 21.0 °F /  -6.1 °C 16.1 °F /  -8.8 °C 30.02in /  1016.5hPa SW 3.0mph /  4.8km/h 7.0mph /  11.3km/h 81% 0.00in /  0mm 26 W/m2
16:20 21.0 °F /  -6.1 °C 16.1 °F /  -8.8 °C 30.02in /  1016.5hPa WSW 3.0mph /  4.8km/h 3.0mph /  4.8km/h 81% 0.00in /  0mm 25 W/m2
16:25 21.0 °F /  -6.1 °C 16.1 °F /  -8.8 °C 30.02in /  1016.5hPa West 3.0mph /  4.8km/h 4.0mph /  6.4km/h 81% 0.00in /  0mm 18 W/m2
16:32 21.1 °F /  -6.1 °C 16.2 °F /  -8.8 °C 30.02in /  1016.5hPa SW 2.0mph /  3.2km/h 8.0mph /  12.9km/h 81% 0.00in /  0mm 14 W/m2
16:38 21.1 °F /  -6.1 °C 16.2 °F /  -8.8 °C 30.02in /  1016.5hPa West 2.0mph /  3.2km/h 8.0mph /  12.9km/h 81% 0.00in /  0mm 11 W/m2
16:44 21.1 °F /  -6.1 °C 16.2 °F /  -8.8 °C 30.02in /  1016.5hPa West 2.0mph /  3.2km/h 6.0mph /  9.7km/h 81% 0.00in /  0mm 9 W/m2
16:50 21.2 °F /  -6 °C 16.3 °F /  -8.7 °C 30.02in /  1016.5hPa West 3.0mph /  4.8km/h 5.0mph /  8km/h 81% 0.00in /  0mm 5 W/m2
16:55 21.2 °F /  -6 °C 16.3 °F /  -8.7 °C 30.02in /  1016.5hPa WSW 3.0mph /  4.8km/h 5.0mph /  8km/h 81% 0.00in /  0mm 0 W/m2
17:02 21.3 °F /  -5.9 °C 16.4 °F /  -8.7 °C 30.01in /  1016.1hPa WSW 3.0mph /  4.8km/h 5.0mph /  8km/h 81% 0.00in /  0mm 0 W/m2
17:08 21.3 °F /  -5.9 °C 16.4 °F /  -8.7 °C 30.01in /  1016.1hPa WSW 3.0mph /  4.8km/h 5.0mph /  8km/h 81% 0.00in /  0mm 0 W/m2
17:13 21.3 °F /  -5.9 °C 16.4 °F /  -8.7 °C 30.01in /  1016.1hPa WSW 4.0mph /  6.4km/h 5.0mph /  8km/h 81% 0.00in /  0mm 0 W/m2
17:20 21.3 °F /  -5.9 °C 16.4 °F /  -8.7 °C 30.01in /  1016.1hPa SW 3.0mph /  4.8km/h 6.0mph /  9.7km/h 81% 0.00in /  0mm 0 W/m2
17:25 21.3 °F /  -5.9 °C 16.1 °F /  -8.8 °C 30.01in /  1016.1hPa NW 4.0mph /  6.4km/h 6.0mph /  9.7km/h 80% 0.00in /  0mm 0 W/m2
17:32 21.3 °F /  -5.9 °C 16.4 °F /  -8.7 °C 30.01in /  1016.1hPa WSW 3.0mph /  4.8km/h 4.0mph /  6.4km/h 81% 0.00in /  0mm 0 W/m2
17:38 21.3 °F /  -5.9 °C 16.4 °F /  -8.7 °C 30.01in /  1016.1hPa West 3.0mph /  4.8km/h 9.0mph /  14.5km/h 81% 0.00in /  0mm 0 W/m2
17:43 21.3 °F /  -5.9 °C 16.1 °F /  -8.8 °C 30.01in /  1016.1hPa WSW 4.0mph /  6.4km/h 7.0mph /  11.3km/h 80% 0.00in /  0mm 0 W/m2
17:50 21.2 °F /  -6 °C 16.0 °F /  -8.9 °C 30.01in /  1016.1hPa WNW 4.0mph /  6.4km/h 5.0mph /  8km/h 80% 0.00in /  0mm 0 W/m2
17:56 21.2 °F /  -6 °C 16.3 °F /  -8.7 °C 30.02in /  1016.5hPa West 3.0mph /  4.8km/h 5.0mph /  8km/h 81% 0.00in /  0mm 0 W/m2
18:04 21.1 °F /  -6.1 °C 16.2 °F /  -8.8 °C 30.02in /  1016.5hPa West 2.0mph /  3.2km/h 5.0mph /  8km/h 81% 0.00in /  0mm 0 W/m2
18:10 21.1 °F /  -6.1 °C 16.2 °F /  -8.8 °C 30.02in /  1016.5hPa SW 2.0mph /  3.2km/h 4.0mph /  6.4km/h 81% 0.00in /  0mm 0 W/m2
18:16 21.1 °F /  -6.1 °C 16.2 °F /  -8.8 °C 30.03in /  1016.8hPa WSW 2.0mph /  3.2km/h 4.0mph /  6.4km/h 81% 0.00in /  0mm 0 W/m2
18:22 21.1 °F /  -6.1 °C 16.2 °F /  -8.8 °C 30.03in /  1016.8hPa SW 2.0mph /  3.2km/h 3.0mph /  4.8km/h 81% 0.00in /  0mm 0 W/m2
18:29 21.1 °F /  -6.1 °C 16.2 °F /  -8.8 °C 30.03in /  1016.8hPa West 3.0mph /  4.8km/h 3.0mph /  4.8km/h 81% 0.00in /  0mm 0 W/m2
18:35 21.1 °F /  -6.1 °C 16.2 °F /  -8.8 °C 30.03in /  1016.8hPa WSW 3.0mph /  4.8km/h 5.0mph /  8km/h 81% 0.00in /  0mm 0 W/m2
18:42 21.1 °F /  -6.1 °C 16.2 °F /  -8.8 °C 30.03in /  1016.8hPa WNW 3.0mph /  4.8km/h 3.0mph /  4.8km/h 81% 0.00in /  0mm 0 W/m2
18:48 21.1 °F /  -6.1 °C 16.2 °F /  -8.8 °C 30.03in /  1016.8hPa West 2.0mph /  3.2km/h 5.0mph /  8km/h 81% 0.00in /  0mm 0 W/m2
18:54 21.1 °F /  -6.1 °C 16.2 °F /  -8.8 °C 30.03in /  1016.8hPa SSW 3.0mph /  4.8km/h 5.0mph /  8km/h 81% 0.00in /  0mm 0 W/m2
19:00 21.1 °F /  -6.1 °C 16.2 °F /  -8.8 °C 30.03in /  1016.8hPa WSW 2.0mph /  3.2km/h 7.0mph /  11.3km/h 81% 0.00in /  0mm 0 W/m2
19:06 21.1 °F /  -6.1 °C 16.2 °F /  -8.8 °C 30.03in /  1016.8hPa WSW 3.0mph /  4.8km/h 7.0mph /  11.3km/h 81% 0.00in /  0mm 0 W/m2
19:12 21.1 °F /  -6.1 °C 16.2 °F /  -8.8 °C 30.03in /  1016.8hPa WSW 2.0mph /  3.2km/h 6.0mph /  9.7km/h 81% 0.00in /  0mm 0 W/m2
19:18 21.0 °F /  -6.1 °C 16.1 °F /  -8.8 °C 30.03in /  1016.8hPa WSW 3.0mph /  4.8km/h 6.0mph /  9.7km/h 81% 0.00in /  0mm 0 W/m2
19:23 21.0 °F /  -6.1 °C 16.1 °F /  -8.8 °C 30.03in /  1016.8hPa SW 3.0mph /  4.8km/h 3.0mph /  4.8km/h 81% 0.00in /  0mm 0 W/m2
19:30 21.0 °F /  -6.1 °C 16.1 °F /  -8.8 °C 30.03in /  1016.8hPa West 3.0mph /  4.8km/h 3.0mph /  4.8km/h 81% 0.00in /  0mm 0 W/m2
19:36 21.0 °F /  -6.1 °C 16.1 °F /  -8.8 °C 30.04in /  1017.2hPa WSW 2.0mph /  3.2km/h 3.0mph /  4.8km/h 81% 0.00in /  0mm 0 W/m2
19:42 21.0 °F /  -6.1 °C 16.1 °F /  -8.8 °C 30.03in /  1016.8hPa SW 2.0mph /  3.2km/h 4.0mph /  6.4km/h 81% 0.00in /  0mm 0 W/m2
19:48 21.0 °F /  -6.1 °C 16.1 °F /  -8.8 °C 30.03in /  1016.8hPa SW 3.0mph /  4.8km/h 6.0mph /  9.7km/h 81% 0.00in /  0mm 0 W/m2
19:53 21.0 °F /  -6.1 °C 16.1 °F /  -8.8 °C 30.03in /  1016.8hPa SW 3.0mph /  4.8km/h 5.0mph /  8km/h 81% 0.00in /  0mm 0 W/m2
19:59 21.0 °F /  -6.1 °C 16.1 °F /  -8.8 °C 30.03in /  1016.8hPa SW 2.0mph /  3.2km/h 3.0mph /  4.8km/h 81% 0.00in /  0mm 0 W/m2
20:05 21.0 °F /  -6.1 °C 16.1 °F /  -8.8 °C 30.03in /  1016.8hPa SW 2.0mph /  3.2km/h 5.0mph /  8km/h 81% 0.00in /  0mm 0 W/m2
20:12 20.9 °F /  -6.2 °C 16.0 °F /  -8.9 °C 30.03in /  1016.8hPa SW 3.0mph /  4.8km/h 3.0mph /  4.8km/h 81% 0.00in /  0mm 0 W/m2
20:18 20.9 °F /  -6.2 °C 16.0 °F /  -8.9 °C 30.03in /  1016.8hPa WSW 1.0mph /  1.6km/h 5.0mph /  8km/h 81% 0.00in /  0mm 0 W/m2
20:24 20.9 °F /  -6.2 °C 16.0 °F /  -8.9 °C 30.03in /  1016.8hPa SSW 2.0mph /  3.2km/h 3.0mph /  4.8km/h 81% 0.00in /  0mm 0 W/m2
20:30 20.9 °F /  -6.2 °C 16.0 °F /  -8.9 °C 30.03in /  1016.8hPa WSW 2.0mph /  3.2km/h 2.0mph /  3.2km/h 81% 0.00in /  0mm 0 W/m2
20:35 20.8 °F /  -6.2 °C 15.9 °F /  -8.9 °C 30.03in /  1016.8hPa SW 2.0mph /  3.2km/h 2.0mph /  3.2km/h 81% 0.00in /  0mm 0 W/m2
20:42 20.7 °F /  -6.3 °C 15.8 °F /  -9 °C 30.03in /  1016.8hPa SSW 2.0mph /  3.2km/h 2.0mph /  3.2km/h 81% 0.00in /  0mm 0 W/m2
20:48 20.6 °F /  -6.3 °C 15.7 °F /  -9.1 °C 30.02in /  1016.5hPa SW 2.0mph /  3.2km/h 3.0mph /  4.8km/h 81% 0.00in /  0mm 0 W/m2
20:54 20.5 °F /  -6.4 °C 15.6 °F /  -9.1 °C 30.02in /  1016.5hPa SW 1.0mph /  1.6km/h 2.0mph /  3.2km/h 81% 0.00in /  0mm 0 W/m2
21:00 20.4 °F /  -6.4 °C 15.5 °F /  -9.2 °C 30.02in /  1016.5hPa Calm   1.0mph /  1.6km/h 81% 0.00in /  0mm 0 W/m2
21:06 20.3 °F /  -6.5 °C 15.7 °F /  -9.1 °C 30.01in /  1016.1hPa Calm   1.0mph /  1.6km/h 82% 0.00in /  0mm 0 W/m2
21:12 20.2 °F /  -6.6 °C 15.6 °F /  -9.1 °C 30.01in /  1016.1hPa Calm     82% 0.00in /  0mm 0 W/m2
21:18 20.1 °F /  -6.6 °C 15.5 °F /  -9.2 °C 30.01in /  1016.1hPa Calm     82% 0.00in /  0mm 0 W/m2
21:24 20.0 °F /  -6.7 °C 15.4 °F /  -9.2 °C 30.01in /  1016.1hPa SW 1.0mph /  1.6km/h 1.0mph /  1.6km/h 82% 0.00in /  0mm 0 W/m2
21:30 19.8 °F /  -6.8 °C 15.2 °F /  -9.3 °C 30.01in /  1016.1hPa Calm     82% 0.00in /  0mm 0 W/m2
21:36 19.6 °F /  -6.9 °C 15.0 °F /  -9.4 °C 30.01in /  1016.1hPa Calm     82% 0.00in /  0mm 0 W/m2
21:42 19.3 °F /  -7.1 °C 14.7 °F /  -9.6 °C 30.01in /  1016.1hPa Calm     82% 0.00in /  0mm 0 W/m2
21:48 18.8 °F /  -7.3 °C 14.5 °F /  -9.7 °C 30.01in /  1016.1hPa Calm   1.0mph /  1.6km/h 83% 0.00in /  0mm 0 W/m2
21:53 18.5 °F /  -7.5 °C 14.2 °F /  -9.9 °C 30.00in /  1015.8hPa Calm     83% 0.00in /  0mm 0 W/m2
22:00 18.1 °F /  -7.7 °C 13.8 °F /  -10.1 °C 30.00in /  1015.8hPa Calm     83% 0.00in /  0mm 0 W/m2
22:06 17.4 °F /  -8.1 °C 13.1 °F /  -10.5 °C 30.00in /  1015.8hPa Calm     83% 0.00in /  0mm 0 W/m2
22:12 17.0 °F /  -8.3 °C 13.0 °F /  -10.6 °C 30.00in /  1015.8hPa Calm     84% 0.00in /  0mm 0 W/m2
22:18 16.8 °F /  -8.4 °C 12.8 °F /  -10.7 °C 30.00in /  1015.8hPa Calm     84% 0.00in /  0mm 0 W/m2
22:24 16.6 °F /  -8.6 °C 12.6 °F /  -10.8 °C 30.00in /  1015.8hPa Calm     84% 0.00in /  0mm 0 W/m2
22:29 16.5 °F /  -8.6 °C 12.8 °F /  -10.7 °C 30.00in /  1015.8hPa Calm     85% 0.00in /  0mm 0 W/m2
22:36 16.3 °F /  -8.7 °C 12.6 °F /  -10.8 °C 30.00in /  1015.8hPa Calm     85% 0.00in /  0mm 0 W/m2
22:42 16.1 °F /  -8.8 °C 12.4 °F /  -10.9 °C 30.00in /  1015.8hPa Calm     85% 0.00in /  0mm 0 W/m2
22:48 15.9 °F /  -8.9 °C 12.2 °F /  -11 °C 30.00in /  1015.8hPa Calm     85% 0.00in /  0mm 0 W/m2
22:54 15.7 °F /  -9.1 °C 12.0 °F /  -11.1 °C 30.00in /  1015.8hPa Calm     85% 0.00in /  0mm 0 W/m2
22:59 15.4 °F /  -9.2 °C 11.7 °F /  -11.3 °C 29.99in /  1015.5hPa Calm     85% 0.00in /  0mm 0 W/m2
23:05 15.0 °F /  -9.4 °C 11.6 °F /  -11.3 °C 29.99in /  1015.5hPa Calm     86% 0.00in /  0mm 0 W/m2
23:12 14.6 °F /  -9.7 °C 11.2 °F /  -11.6 °C 29.99in /  1015.5hPa Calm     86% 0.00in /  0mm 0 W/m2
23:18 14.4 °F /  -9.8 °C 11.0 °F /  -11.7 °C 29.99in /  1015.5hPa Calm     86% 0.00in /  0mm 0 W/m2
23:24 14.3 °F /  -9.8 °C 10.9 °F /  -11.7 °C 29.99in /  1015.5hPa Calm     86% 0.00in /  0mm 0 W/m2
23:30 14.2 °F /  -9.9 °C 10.8 °F /  -11.8 °C 29.99in /  1015.5hPa Calm     86% 0.00in /  0mm 0 W/m2
23:35 14.2 °F /  -9.9 °C 11.0 °F /  -11.7 °C 29.99in /  1015.5hPa Calm     87% 0.00in /  0mm 0 W/m2
23:42 14.4 °F /  -9.8 °C 11.2 °F /  -11.6 °C 29.99in /  1015.5hPa Calm     87% 0.00in /  0mm 0 W/m2
23:48 14.8 °F /  -9.6 °C 11.6 °F /  -11.3 °C 29.99in /  1015.5hPa Calm     87% 0.00in /  0mm 0 W/m2
23:54 15.2 °F /  -9.3 °C 12.3 °F /  -10.9 °C 29.99in /  1015.5hPa Calm     88% 0.00in /  0mm 0 W/m2
Country Meadow, Clay, NY, USA
Compliments of Weather Underground - 2 mb